createdAt,value
2024-02-29T00:00:07.445Z,5.07
2024-02-29T00:02:36.441Z,4.88
2024-02-29T00:05:04.785Z,4.55
2024-02-29T00:07:32.763Z,4.10
2024-02-29T00:10:01.057Z,3.25
2024-02-29T00:12:29.180Z,4.10
2024-02-29T00:14:57.485Z,3.97
2024-02-29T00:17:26.753Z,4.78
2024-02-29T00:19:53.811Z,3.85
2024-02-29T00:22:21.817Z,4.07
2024-02-29T00:24:49.780Z,3.60
2024-02-29T00:27:20.885Z,3.45
2024-02-29T00:29:53.598Z,3.15
2024-02-29T00:32:21.530Z,3.47
2024-02-29T00:34:50.848Z,4.55
2024-02-29T00:37:18.857Z,4.72
2024-02-29T00:39:48.392Z,4.28
2024-02-29T00:42:16.352Z,3.65
2024-02-29T00:44:44.324Z,3.45
2024-02-29T00:47:13.616Z,5.55
2024-02-29T00:49:42.578Z,4.70
2024-02-29T00:52:11.945Z,3.28
2024-02-29T00:54:42.780Z,3.75
2024-02-29T00:57:10.779Z,5.15
2024-02-29T00:59:38.939Z,4.57
2024-02-29T01:02:06.973Z,4.25
2024-02-29T01:04:35.427Z,3.35
2024-02-29T01:07:03.494Z,4.55
2024-02-29T01:09:32.870Z,3.15
2024-02-29T01:12:00.926Z,4.90
2024-02-29T01:14:29.248Z,3.25
2024-02-29T01:16:58.044Z,2.90
2024-02-29T01:19:26.124Z,3.60
2024-02-29T01:21:54.090Z,3.50
2024-02-29T01:24:22.065Z,3.60
2024-02-29T01:26:52.737Z,3.50
2024-02-29T01:29:20.755Z,3.80
2024-02-29T01:31:48.745Z,3.70
2024-02-29T01:34:16.874Z,4.15
2024-02-29T01:36:45.661Z,3.80
2024-02-29T01:39:13.665Z,4.72
2024-02-29T01:41:41.592Z,3.83
2024-02-29T01:44:10.924Z,5.00
2024-02-29T01:46:41.443Z,5.43
2024-02-29T01:49:10.319Z,4.22
2024-02-29T01:51:38.524Z,4.40
2024-02-29T01:54:06.728Z,4.75
2024-02-29T01:56:34.985Z,4.43
2024-02-29T01:59:04.122Z,5.13
2024-02-29T02:01:34.214Z,4.95
2024-02-29T02:04:02.952Z,4.75
2024-02-29T02:06:30.932Z,4.50
2024-02-29T02:08:58.932Z,5.18
2024-02-29T02:11:26.996Z,5.53
2024-02-29T02:13:54.970Z,5.00
2024-02-29T02:16:23.021Z,4.60
2024-02-29T02:18:52.381Z,5.75
2024-02-29T02:21:21.662Z,3.47
2024-02-29T02:23:49.629Z,4.63
2024-02-29T02:26:17.648Z,3.20
2024-02-29T02:28:45.549Z,4.80
2024-02-29T02:31:13.617Z,5.05
2024-02-29T02:33:41.720Z,7.20
2024-02-29T02:36:09.876Z,4.78
2024-02-29T02:38:39.206Z,4.30
2024-02-29T02:41:08.788Z,4.55
2024-02-29T02:43:36.736Z,3.72
2024-02-29T02:46:05.011Z,4.68
2024-02-29T02:48:33.007Z,3.33
2024-02-29T02:51:01.008Z,4.43
2024-02-29T02:53:28.999Z,5.32
2024-02-29T02:55:58.377Z,2.70
2024-02-29T02:58:26.323Z,3.85
2024-02-29T03:00:54.449Z,5.22
2024-02-29T03:03:22.437Z,3.55
2024-02-29T03:05:50.416Z,3.92
2024-02-29T03:08:18.484Z,4.18
2024-02-29T03:10:46.419Z,4.18
2024-02-29T03:13:16.202Z,4.28
2024-02-29T03:15:44.199Z,4.03
2024-02-29T03:18:12.292Z,5.03
2024-02-29T03:20:40.185Z,3.33
2024-02-29T03:23:08.274Z,7.03
2024-02-29T03:25:36.215Z,4.03
2024-02-29T03:28:04.194Z,3.95
2024-02-29T03:30:33.537Z,4.72
2024-02-29T03:33:01.720Z,3.97
2024-02-29T03:35:29.711Z,4.43
2024-02-29T03:37:57.637Z,4.82
2024-02-29T03:40:25.526Z,4.65
2024-02-29T03:42:53.504Z,4.75
2024-02-29T03:45:21.491Z,4.57
2024-02-29T03:47:50.795Z,4.22
2024-02-29T03:50:18.720Z,4.38
2024-02-29T03:52:49.044Z,5.07
2024-02-29T03:55:17.113Z,4.47
2024-02-29T03:57:45.175Z,4.95
2024-02-29T04:00:14.648Z,4.75
2024-02-29T04:02:42.683Z,4.90
2024-02-29T04:05:12.079Z,4.25
2024-02-29T04:07:41.645Z,4.10
2024-02-29T04:10:10.667Z,4.75
2024-02-29T04:12:38.663Z,4.30
2024-02-29T04:15:08.015Z,4.25
2024-02-29T04:17:36.023Z,5.88
2024-02-29T04:20:04.456Z,4.72
2024-02-29T04:22:33.718Z,5.03
2024-02-29T04:25:01.747Z,4.28
2024-02-29T04:27:29.724Z,4.80
2024-02-29T04:29:57.654Z,5.13
2024-02-29T04:32:27.462Z,6.85
2024-02-29T04:34:56.289Z,4.03
2024-02-29T04:37:24.393Z,4.00
2024-02-29T04:39:53.646Z,4.72
2024-02-29T04:42:21.881Z,3.80
2024-02-29T04:44:49.818Z,4.97
2024-02-29T04:47:17.755Z,4.93
2024-02-29T04:49:45.762Z,3.97
2024-02-29T04:52:13.844Z,4.13
2024-02-29T04:54:41.951Z,3.90
2024-02-29T04:57:11.302Z,4.32
2024-02-29T04:59:39.245Z,4.30
2024-02-29T05:02:07.828Z,3.55
2024-02-29T05:04:35.903Z,3.65
2024-02-29T05:07:04.160Z,4.82
2024-02-29T05:09:37.614Z,2.55
2024-02-29T05:12:05.754Z,4.45
2024-02-29T05:14:35.049Z,4.32
2024-02-29T05:17:03.132Z,3.03
2024-02-29T05:19:31.229Z,3.50
2024-02-29T05:22:03.205Z,3.88
2024-02-29T05:24:33.964Z,4.55
2024-02-29T05:27:01.950Z,5.20
2024-02-29T05:29:30.876Z,3.60
2024-02-29T05:32:00.177Z,3.53
2024-02-29T05:34:28.064Z,3.88
2024-02-29T05:36:56.006Z,4.15
2024-02-29T05:39:24.407Z,4.03
2024-02-29T05:41:52.565Z,4.35
2024-02-29T05:44:20.552Z,3.40
2024-02-29T05:46:48.454Z,2.83
2024-02-29T05:49:17.828Z,3.92
2024-02-29T05:51:45.860Z,4.65
2024-02-29T05:54:13.997Z,4.32
2024-02-29T05:56:41.905Z,2.63
2024-02-29T05:59:09.911Z,3.95
2024-02-29T06:01:37.948Z,2.72
2024-02-29T06:04:06.413Z,2.53
2024-02-29T06:06:36.487Z,2.70
2024-02-29T06:09:04.721Z,2.03
2024-02-29T06:11:32.792Z,2.45
2024-02-29T06:14:03.572Z,4.32
2024-02-29T06:16:31.897Z,2.15
2024-02-29T06:19:00.074Z,3.78
2024-02-29T06:21:28.047Z,2.63
2024-02-29T06:23:58.049Z,3.42
2024-02-29T06:26:26.264Z,3.63
2024-02-29T06:28:54.462Z,2.67
2024-02-29T06:31:26.532Z,3.47
2024-02-29T06:33:54.579Z,2.25
2024-02-29T06:36:22.661Z,1.73
2024-02-29T06:38:50.710Z,1.48
2024-02-29T06:41:20.004Z,1.83
2024-02-29T06:43:47.919Z,4.07
2024-02-29T06:46:16.066Z,2.35
2024-02-29T06:48:44.021Z,2.63
2024-02-29T06:51:11.964Z,3.30
2024-02-29T06:53:39.893Z,1.90
2024-02-29T06:56:07.823Z,2.90
2024-02-29T06:58:37.937Z,1.58
2024-02-29T07:01:07.336Z,1.63
2024-02-29T07:03:35.492Z,2.20
2024-02-29T07:06:03.991Z,2.20
2024-02-29T07:08:33.217Z,2.33
2024-02-29T07:11:02.475Z,2.22
2024-02-29T07:13:30.859Z,1.95
2024-02-29T07:16:00.255Z,2.05
2024-02-29T07:18:28.236Z,3.65
2024-02-29T07:20:56.172Z,2.90
2024-02-29T07:23:24.502Z,4.00
2024-02-29T07:25:52.526Z,1.95
2024-02-29T07:28:20.512Z,1.75
2024-02-29T07:30:48.664Z,2.20
2024-02-29T07:33:18.242Z,2.33
2024-02-29T07:35:46.495Z,1.77
2024-02-29T07:38:14.522Z,1.55
2024-02-29T07:40:42.684Z,2.25
2024-02-29T07:43:11.052Z,2.65
2024-02-29T07:45:39.228Z,2.33
2024-02-29T07:48:07.787Z,1.23
2024-02-29T07:50:37.329Z,2.25
2024-02-29T07:53:05.474Z,1.88
2024-02-29T07:55:33.463Z,1.55
2024-02-29T07:58:01.973Z,2.35
2024-02-29T08:00:30.128Z,2.00
2024-02-29T08:02:58.561Z,2.83
2024-02-29T08:05:26.466Z,2.63
2024-02-29T08:08:01.909Z,2.13
2024-02-29T08:10:29.981Z,2.95
2024-02-29T08:12:57.972Z,2.70
2024-02-29T08:15:26.001Z,3.72
2024-02-29T08:17:54.044Z,2.85
2024-02-29T08:20:26.456Z,1.65
2024-02-29T08:22:55.325Z,2.05
2024-02-29T08:25:27.211Z,3.50
2024-02-29T08:28:00.238Z,2.88
2024-02-29T08:30:28.132Z,2.70
2024-02-29T08:32:56.124Z,2.55
2024-02-29T08:35:24.079Z,2.50
2024-02-29T08:37:54.533Z,3.40
2024-02-29T08:40:23.997Z,3.83
2024-02-29T08:42:52.708Z,2.20
2024-02-29T08:45:22.886Z,3.78
2024-02-29T08:47:51.249Z,3.05
2024-02-29T08:50:19.214Z,2.78
2024-02-29T08:52:47.201Z,3.97
2024-02-29T08:55:15.405Z,2.13
2024-02-29T08:57:44.768Z,1.90
2024-02-29T09:00:17.313Z,2.22
2024-02-29T09:02:45.967Z,2.20
2024-02-29T09:05:13.974Z,2.28
2024-02-29T09:07:41.920Z,1.98
2024-02-29T09:10:10.829Z,3.17
2024-02-29T09:12:38.836Z,3.35
2024-02-29T09:15:09.244Z,2.35
2024-02-29T09:17:37.265Z,1.80
2024-02-29T09:20:07.583Z,1.40
2024-02-29T09:22:35.604Z,2.83
2024-02-29T09:25:04.244Z,2.03
2024-02-29T09:27:32.198Z,2.55
2024-02-29T09:30:06.758Z,1.30
2024-02-29T09:32:36.081Z,1.65
2024-02-29T09:35:04.806Z,1.83
2024-02-29T09:37:33.063Z,1.83
2024-02-29T09:40:03.810Z,1.77
2024-02-29T09:42:33.967Z,2.13
2024-02-29T09:45:02.213Z,2.33
2024-02-29T09:47:31.005Z,2.28
2024-02-29T09:50:04.891Z,2.10
2024-02-29T09:52:37.757Z,1.77
2024-02-29T09:55:07.713Z,3.30
2024-02-29T09:57:36.794Z,1.05
2024-02-29T10:00:05.561Z,1.80
2024-02-29T10:02:35.316Z,2.15
2024-02-29T10:05:06.438Z,2.25
2024-02-29T10:07:34.380Z,1.40
2024-02-29T10:10:02.514Z,1.20
2024-02-29T10:12:30.491Z,2.50
2024-02-29T10:15:00.513Z,1.63
2024-02-29T10:17:28.475Z,2.70
2024-02-29T10:19:57.667Z,1.30
2024-02-29T10:22:27.171Z,1.73
2024-02-29T10:24:56.177Z,2.50
2024-02-29T10:27:24.538Z,1.45
2024-02-29T10:29:54.072Z,1.70
2024-02-29T10:32:23.055Z,1.83
2024-02-29T10:34:51.087Z,1.27
2024-02-29T10:37:19.240Z,1.52
2024-02-29T10:39:48.692Z,1.30
2024-02-29T10:42:21.713Z,1.55
2024-02-29T10:44:53.990Z,1.10
2024-02-29T10:47:23.843Z,2.15
2024-02-29T10:49:58.689Z,1.95
2024-02-29T10:52:30.901Z,1.05
2024-02-29T10:55:06.945Z,1.52
2024-02-29T10:57:43.490Z,1.08
2024-02-29T11:00:13.604Z,2.00
2024-02-29T11:02:42.408Z,1.55
2024-02-29T11:05:11.133Z,1.70
2024-02-29T11:07:39.574Z,1.75
2024-02-29T11:10:10.418Z,1.27
2024-02-29T11:12:41.403Z,1.70
2024-02-29T11:15:16.524Z,1.55
2024-02-29T11:17:49.929Z,1.50
2024-02-29T11:20:21.817Z,1.00
2024-02-29T11:22:50.297Z,1.45
2024-02-29T11:25:23.780Z,1.23
2024-02-29T11:27:53.322Z,1.98
2024-02-29T11:30:24.247Z,0.95
2024-02-29T11:32:53.245Z,1.45
2024-02-29T11:35:21.628Z,1.15
2024-02-29T11:37:49.957Z,1.30
2024-02-29T11:40:18.259Z,1.35
2024-02-29T11:42:48.248Z,2.13
2024-02-29T11:45:23.608Z,2.83
2024-02-29T11:47:52.129Z,1.15
2024-02-29T11:50:20.275Z,1.42
2024-02-29T11:52:48.460Z,1.75
2024-02-29T11:55:16.556Z,1.17
2024-02-29T11:57:50.685Z,1.08
2024-02-29T12:00:18.999Z,1.60
2024-02-29T12:02:47.408Z,1.00
2024-02-29T12:05:18.506Z,1.60
2024-02-29T12:07:48.113Z,1.63
2024-02-29T12:10:18.603Z,1.33
2024-02-29T12:12:48.358Z,1.70
2024-02-29T12:15:16.699Z,2.47
2024-02-29T12:17:44.661Z,1.50
2024-02-29T12:20:17.930Z,1.20
2024-02-29T12:22:49.828Z,1.70
2024-02-29T12:25:18.746Z,1.48
2024-02-29T12:27:51.254Z,1.65
2024-02-29T12:30:20.834Z,2.38
2024-02-29T12:32:49.477Z,1.95
2024-02-29T12:35:19.231Z,2.00
2024-02-29T12:37:47.751Z,1.50
2024-02-29T12:40:16.507Z,1.90
2024-02-29T12:42:44.618Z,1.75
2024-02-29T12:45:17.177Z,1.80
2024-02-29T12:47:47.448Z,2.08
2024-02-29T12:50:15.965Z,2.05
2024-02-29T12:52:43.946Z,1.63
2024-02-29T12:55:16.282Z,1.60
2024-02-29T12:57:44.475Z,2.47
2024-02-29T13:00:20.233Z,1.05
2024-02-29T13:02:48.559Z,2.00
2024-02-29T13:05:16.789Z,2.40
2024-02-29T13:07:45.597Z,1.70
2024-02-29T13:10:13.865Z,1.90
2024-02-29T13:12:45.427Z,1.40
2024-02-29T13:15:18.567Z,1.85
2024-02-29T13:17:46.837Z,1.90
2024-02-29T13:20:15.183Z,2.13
2024-02-29T13:22:43.347Z,1.63
2024-02-29T13:25:11.450Z,1.67
2024-02-29T13:27:39.553Z,1.27
2024-02-29T13:30:08.869Z,3.33
2024-02-29T13:32:38.288Z,2.50
2024-02-29T13:35:07.050Z,1.60
2024-02-29T13:37:38.515Z,2.13
2024-02-29T13:40:07.751Z,1.67
2024-02-29T13:42:35.830Z,2.10
2024-02-29T13:45:03.874Z,1.05
2024-02-29T13:47:31.854Z,1.63
2024-02-29T13:50:01.228Z,1.58
2024-02-29T13:52:29.692Z,1.08
2024-02-29T13:54:57.754Z,1.90
2024-02-29T13:57:25.755Z,1.90
2024-02-29T13:59:55.197Z,1.20
2024-02-29T14:02:23.196Z,1.20
2024-02-29T14:04:51.214Z,1.50
2024-02-29T14:07:20.627Z,1.13
2024-02-29T14:09:49.004Z,1.45
2024-02-29T14:12:17.118Z,1.10
2024-02-29T14:14:48.071Z,2.30
2024-02-29T14:17:16.208Z,1.88
2024-02-29T14:19:44.191Z,1.98
2024-02-29T14:22:12.239Z,1.05
2024-02-29T14:24:41.620Z,1.30
2024-02-29T14:27:13.976Z,1.50
2024-02-29T14:29:41.902Z,1.23
2024-02-29T14:32:10.405Z,4.20
2024-02-29T14:34:38.795Z,1.45
2024-02-29T14:37:10.405Z,1.65
2024-02-29T14:39:38.586Z,1.13
2024-02-29T14:42:12.334Z,1.33
2024-02-29T14:44:40.306Z,1.65
2024-02-29T14:47:08.773Z,1.27
2024-02-29T14:49:36.784Z,1.23
2024-02-29T14:52:05.204Z,1.58
2024-02-29T14:54:33.231Z,1.23
2024-02-29T14:57:01.641Z,1.08
2024-02-29T14:59:30.892Z,1.30
2024-02-29T15:01:58.945Z,1.58
2024-02-29T15:04:27.042Z,1.65
2024-02-29T15:06:56.014Z,1.40
2024-02-29T15:09:24.120Z,1.67
2024-02-29T15:11:52.237Z,1.63
2024-02-29T15:14:20.307Z,1.30
2024-02-29T15:16:50.113Z,1.75
2024-02-29T15:19:18.538Z,1.80
2024-02-29T15:21:47.862Z,1.67
2024-02-29T15:24:17.657Z,1.17
2024-02-29T15:26:46.458Z,1.20
2024-02-29T15:29:14.427Z,1.50
2024-02-29T15:31:43.152Z,1.30
2024-02-29T15:34:12.969Z,1.83
2024-02-29T15:36:41.124Z,2.35
2024-02-29T15:39:09.240Z,1.52
2024-02-29T15:41:37.307Z,1.17
2024-02-29T15:44:05.636Z,1.20
2024-02-29T15:46:33.700Z,1.70
2024-02-29T15:49:01.791Z,1.63
2024-02-29T15:51:31.728Z,1.27
2024-02-29T15:54:02.476Z,1.38
2024-02-29T15:56:31.169Z,1.15
2024-02-29T15:58:59.271Z,1.40
2024-02-29T16:01:27.341Z,1.13
2024-02-29T16:03:55.430Z,1.27
2024-02-29T16:06:23.458Z,1.35
2024-02-29T16:08:54.236Z,1.15
2024-02-29T16:11:23.229Z,1.80
2024-02-29T16:13:51.480Z,1.92
2024-02-29T16:16:19.466Z,1.02
2024-02-29T16:18:47.778Z,1.63
2024-02-29T16:21:15.791Z,1.55
2024-02-29T16:23:45.076Z,3.17
2024-02-29T16:26:14.374Z,1.55
2024-02-29T16:28:42.573Z,1.85
2024-02-29T16:31:10.523Z,2.60
2024-02-29T16:33:38.620Z,2.30
2024-02-29T16:36:08.333Z,5.45
2024-02-29T16:38:38.346Z,2.35
2024-02-29T16:41:08.070Z,8.98
2024-02-29T16:43:39.378Z,4.53
2024-02-29T16:46:08.675Z,3.75
2024-02-29T16:48:37.000Z,4.15
2024-02-29T16:51:05.727Z,11.93
2024-02-29T16:53:33.874Z,15.85
2024-02-29T16:56:01.903Z,4.55
2024-02-29T16:58:30.137Z,4.10
2024-02-29T17:01:00.255Z,3.25
2024-02-29T17:03:28.254Z,3.00
2024-02-29T17:05:57.038Z,3.28
2024-02-29T17:08:25.005Z,2.55
2024-02-29T17:10:53.149Z,3.17
2024-02-29T17:13:21.735Z,5.75
2024-02-29T17:15:50.043Z,2.15
2024-02-29T17:18:19.306Z,3.13
2024-02-29T17:20:47.322Z,2.72
2024-02-29T17:23:15.860Z,3.25
2024-02-29T17:25:43.832Z,4.82
2024-02-29T17:28:11.796Z,3.90
2024-02-29T17:30:40.650Z,4.13
2024-02-29T17:33:08.640Z,3.28
2024-02-29T17:35:40.204Z,3.72
2024-02-29T17:38:08.889Z,4.00
2024-02-29T17:40:36.911Z,2.90
2024-02-29T17:43:05.397Z,3.20
2024-02-29T17:45:33.448Z,3.00
2024-02-29T17:48:01.415Z,2.55
2024-02-29T17:50:31.450Z,2.88
2024-02-29T17:53:00.896Z,1.88
2024-02-29T17:55:29.380Z,3.20
2024-02-29T17:57:57.430Z,3.88
2024-02-29T18:00:25.449Z,2.28
2024-02-29T18:02:53.558Z,2.25
2024-02-29T18:05:21.572Z,3.00
2024-02-29T18:07:55.567Z,3.78
2024-02-29T18:10:28.844Z,2.22
2024-02-29T18:12:56.928Z,2.63
2024-02-29T18:15:24.947Z,2.63
2024-02-29T18:17:52.921Z,2.25
2024-02-29T18:20:20.902Z,2.33
2024-02-29T18:22:49.973Z,2.60
2024-02-29T18:25:19.783Z,1.70
2024-02-29T18:27:49.462Z,3.55
2024-02-29T18:30:17.625Z,2.83
2024-02-29T18:32:45.618Z,2.92
2024-02-29T18:35:13.595Z,2.67
2024-02-29T18:37:41.610Z,2.30
2024-02-29T18:40:12.164Z,2.53
2024-02-29T18:42:40.295Z,2.17
2024-02-29T18:45:10.755Z,3.55
2024-02-29T18:47:38.837Z,2.80
2024-02-29T18:50:07.733Z,3.67
2024-02-29T18:52:35.821Z,2.17
2024-02-29T18:55:04.724Z,2.95
2024-02-29T18:57:32.698Z,2.80
2024-02-29T19:00:00.719Z,2.10
2024-02-29T19:02:30.001Z,2.80
2024-02-29T19:04:58.012Z,2.83
2024-02-29T19:07:27.812Z,2.92
2024-02-29T19:09:57.922Z,2.95
2024-02-29T19:12:26.324Z,2.92
2024-02-29T19:14:54.488Z,2.10
2024-02-29T19:17:23.333Z,3.58
2024-02-29T19:19:54.043Z,2.78
2024-02-29T19:22:22.025Z,2.50
2024-02-29T19:24:50.193Z,2.20
2024-02-29T19:27:19.046Z,2.65
2024-02-29T19:29:51.050Z,1.75
2024-02-29T19:32:19.141Z,3.08
2024-02-29T19:34:47.169Z,3.55
2024-02-29T19:37:16.503Z,3.10
2024-02-29T19:39:45.082Z,1.90
2024-02-29T19:42:13.040Z,2.88
2024-02-29T19:44:41.058Z,2.45
2024-02-29T19:47:09.000Z,2.58
2024-02-29T19:49:38.747Z,2.08
2024-02-29T19:52:07.850Z,2.08
2024-02-29T19:54:39.211Z,1.77
2024-02-29T19:57:12.539Z,2.83
2024-02-29T19:59:40.451Z,2.40
2024-02-29T20:02:08.427Z,1.88
2024-02-29T20:04:36.572Z,2.90
2024-02-29T20:07:04.738Z,2.72
2024-02-29T20:09:32.885Z,4.18
2024-02-29T20:12:02.918Z,2.63
2024-02-29T20:14:30.857Z,2.80
2024-02-29T20:16:58.780Z,2.33
2024-02-29T20:19:27.334Z,2.70
2024-02-29T20:21:56.241Z,3.20
2024-02-29T20:24:24.195Z,3.63
2024-02-29T20:26:52.096Z,3.33
2024-02-29T20:29:21.535Z,3.28
2024-02-29T20:31:50.242Z,2.13
2024-02-29T20:34:18.291Z,2.40
2024-02-29T20:36:46.301Z,3.10
2024-02-29T20:39:15.392Z,2.95
2024-02-29T20:41:43.372Z,2.35
2024-02-29T20:44:11.361Z,2.15
2024-02-29T20:46:40.641Z,4.28
2024-02-29T20:49:08.750Z,2.10
2024-02-29T20:51:36.674Z,2.22
2024-02-29T20:54:04.884Z,2.22
2024-02-29T20:56:32.937Z,1.88
2024-02-29T20:59:02.567Z,2.10
2024-02-29T21:01:33.314Z,2.33
2024-02-29T21:04:02.806Z,2.28
2024-02-29T21:06:32.682Z,1.95
2024-02-29T21:09:00.763Z,2.03
2024-02-29T21:11:28.830Z,2.35
2024-02-29T21:13:56.918Z,3.15
2024-02-29T21:16:24.972Z,4.20
2024-02-29T21:18:53.909Z,2.45
2024-02-29T21:21:25.671Z,3.08
2024-02-29T21:23:54.169Z,3.30
2024-02-29T21:26:22.170Z,1.95
2024-02-29T21:28:50.670Z,2.85
2024-02-29T21:31:18.937Z,1.80
2024-02-29T21:33:48.000Z,2.75
2024-02-29T21:36:16.165Z,3.50
2024-02-29T21:38:47.972Z,1.70
2024-02-29T21:41:18.605Z,2.83
2024-02-29T21:43:52.679Z,1.50
2024-02-29T21:46:22.132Z,1.70
2024-02-29T21:48:50.156Z,1.92
2024-02-29T21:51:19.044Z,1.80
2024-02-29T21:53:49.440Z,1.80
2024-02-29T21:56:26.280Z,2.05
2024-02-29T21:58:54.204Z,1.90
2024-02-29T22:01:22.243Z,1.30
2024-02-29T22:03:50.363Z,1.60
2024-02-29T22:06:18.357Z,1.58
2024-02-29T22:08:46.326Z,1.83
2024-02-29T22:11:15.652Z,1.77
2024-02-29T22:13:43.564Z,2.10
2024-02-29T22:16:11.791Z,1.55
2024-02-29T22:18:38.767Z,1.63
2024-02-29T22:21:07.958Z,2.00
2024-02-29T22:23:35.942Z,1.80
2024-02-29T22:26:03.939Z,2.70
2024-02-29T22:28:33.287Z,1.95
2024-02-29T22:31:01.358Z,3.10
2024-02-29T22:33:29.339Z,1.40
2024-02-29T22:35:59.172Z,1.60
2024-02-29T22:38:27.692Z,2.78
2024-02-29T22:40:55.754Z,2.90
2024-02-29T22:43:23.784Z,2.47
2024-02-29T22:45:53.305Z,1.55
2024-02-29T22:48:21.436Z,2.13
2024-02-29T22:50:49.999Z,1.80
2024-02-29T22:53:18.016Z,2.40
2024-02-29T22:55:49.127Z,1.60
2024-02-29T22:58:19.479Z,2.10
2024-02-29T23:00:53.202Z,1.73
2024-02-29T23:03:23.350Z,1.23
2024-02-29T23:05:51.460Z,1.55
2024-02-29T23:08:19.776Z,1.88
2024-02-29T23:10:47.842Z,2.15
2024-02-29T23:13:15.949Z,3.55
2024-02-29T23:15:44.109Z,2.70
2024-02-29T23:18:12.143Z,1.70
2024-02-29T23:20:41.382Z,2.53
2024-02-29T23:23:09.487Z,1.60
2024-02-29T23:25:37.361Z,2.22
2024-02-29T23:28:06.336Z,2.22
2024-02-29T23:30:34.331Z,2.28
2024-02-29T23:33:03.668Z,1.80
2024-02-29T23:35:31.670Z,3.03
2024-02-29T23:38:00.994Z,1.75
2024-02-29T23:40:29.330Z,1.52
2024-02-29T23:42:57.647Z,1.80
2024-02-29T23:45:25.648Z,2.05
2024-02-29T23:47:54.336Z,1.90
2024-02-29T23:50:24.409Z,1.83
2024-02-29T23:52:52.877Z,1.42
2024-02-29T23:55:27.224Z,2.00
2024-02-29T23:57:55.981Z,1.80
